createdAt,value
2019-05-21T00:02:06.632Z,860.93
2019-05-21T00:04:34.947Z,756.23
2019-05-21T00:07:03.246Z,673.37
2019-05-21T00:09:31.551Z,654.47
2019-05-21T00:11:59.846Z,620.33
2019-05-21T00:14:28.154Z,584.00
2019-05-21T00:16:56.457Z,547.23
2019-05-21T00:19:24.763Z,513.33
2019-05-21T00:21:53.048Z,492.07
2019-05-21T00:24:21.670Z,550.57
2019-05-21T00:26:49.960Z,506.13
2019-05-21T00:29:54.819Z,445.80
2019-05-21T00:32:59.357Z,421.50
2019-05-21T00:36:04.067Z,415.80
2019-05-21T00:39:09.027Z,365.87
2019-05-21T00:42:01.559Z,384.60
2019-05-21T00:44:32.302Z,402.37
2019-05-21T00:47:01.175Z,378.70
2019-05-21T00:49:29.511Z,367.03
2019-05-21T00:52:07.061Z,390.90
2019-05-21T00:54:28.119Z,419.17
2019-05-21T00:56:56.397Z,374.10
2019-05-21T00:59:24.694Z,348.17
2019-05-21T01:01:53.015Z,329.53
2019-05-21T01:04:21.298Z,306.20
2019-05-21T01:06:49.611Z,299.13
2019-05-21T01:09:17.918Z,302.70
2019-05-21T01:11:46.228Z,288.87
2019-05-21T01:14:14.519Z,296.90
2019-05-21T01:16:42.901Z,338.30
2019-05-21T01:19:11.194Z,331.47
2019-05-21T01:21:39.503Z,327.70
2019-05-21T01:24:07.972Z,298.50
2019-05-21T01:26:36.286Z,282.37
2019-05-21T01:29:04.721Z,264.90
2019-05-21T01:31:33.041Z,245.83
2019-05-21T01:34:01.333Z,275.83
2019-05-21T01:36:29.648Z,240.37
2019-05-21T01:38:57.949Z,270.73
2019-05-21T01:41:26.302Z,246.20
2019-05-21T01:43:54.618Z,202.83
2019-05-21T01:46:22.917Z,241.30
2019-05-21T01:48:51.225Z,227.23
2019-05-21T01:51:19.526Z,207.60
2019-05-21T01:53:47.841Z,194.00
2019-05-21T01:56:16.136Z,190.07
2019-05-21T01:58:44.710Z,187.73
2019-05-21T02:01:12.998Z,176.17
2019-05-21T02:03:41.383Z,195.90
2019-05-21T02:06:09.847Z,189.27
2019-05-21T02:08:38.142Z,207.30
2019-05-21T02:11:06.534Z,202.17
2019-05-21T02:13:34.828Z,201.47
2019-05-21T02:16:03.280Z,194.90
2019-05-21T02:18:31.583Z,221.40
2019-05-21T02:20:59.906Z,184.63
2019-05-21T02:23:28.201Z,217.33
2019-05-21T02:25:56.857Z,211.40
2019-05-21T02:28:25.159Z,181.03
2019-05-21T02:30:56.411Z,173.67
2019-05-21T02:33:23.494Z,206.90
2019-05-21T02:35:54.531Z,207.27
2019-05-21T02:38:21.854Z,189.27
2019-05-21T02:40:50.158Z,195.97
2019-05-21T02:43:19.148Z,208.07
2019-05-21T02:45:47.421Z,213.23
2019-05-21T02:48:16.516Z,241.47
2019-05-21T02:50:44.794Z,255.87
2019-05-21T02:53:13.109Z,245.37
2019-05-21T02:55:41.407Z,271.90
2019-05-21T02:58:09.795Z,230.97
2019-05-21T03:00:42.665Z,247.20
2019-05-21T03:03:12.611Z,201.23
2019-05-21T03:05:40.903Z,216.27
2019-05-21T03:08:09.233Z,264.90
2019-05-21T03:10:37.532Z,235.83
2019-05-21T03:13:05.840Z,280.57
2019-05-21T03:15:34.145Z,184.47
2019-05-21T03:18:02.435Z,208.33
2019-05-21T03:20:30.753Z,246.07
2019-05-21T03:22:59.044Z,222.17
2019-05-21T03:25:27.356Z,283.30
2019-05-21T03:27:55.666Z,280.13
2019-05-21T03:30:24.053Z,259.73
2019-05-21T03:32:52.523Z,232.03
2019-05-21T03:35:20.913Z,262.30
2019-05-21T03:37:49.203Z,231.30
2019-05-21T03:40:17.540Z,270.27
2019-05-21T03:42:45.801Z,295.40
2019-05-21T03:45:14.825Z,183.33
2019-05-21T03:47:43.117Z,181.17
2019-05-21T03:50:11.640Z,209.97
2019-05-21T03:52:40.029Z,294.47
2019-05-21T03:55:08.392Z,284.17
2019-05-21T03:57:36.715Z,189.20
2019-05-21T04:00:09.380Z,276.07
2019-05-21T04:02:37.684Z,311.33
2019-05-21T04:05:06.739Z,348.80
2019-05-21T04:07:35.027Z,281.37
2019-05-21T04:10:04.194Z,274.73
2019-05-21T04:12:32.579Z,408.07
2019-05-21T04:15:17.419Z,313.73
2019-05-21T04:17:50.307Z,366.83
2019-05-21T04:20:18.622Z,346.20
2019-05-21T04:22:52.667Z,349.17
2019-05-21T04:25:21.923Z,352.57
2019-05-21T04:27:50.293Z,381.87
2019-05-21T04:30:18.823Z,352.53
2019-05-21T04:32:47.104Z,367.37
2019-05-21T04:35:15.420Z,367.33
2019-05-21T04:37:43.713Z,385.47
2019-05-21T04:40:12.732Z,417.33
2019-05-21T04:42:41.016Z,421.73
2019-05-21T04:45:09.390Z,449.70
2019-05-21T04:47:37.704Z,397.10
2019-05-21T04:50:06.069Z,408.17
2019-05-21T04:52:34.356Z,460.67
2019-05-21T04:55:02.824Z,346.83
2019-05-21T04:57:31.101Z,366.20
2019-05-21T04:59:59.399Z,362.43
2019-05-21T05:02:27.724Z,371.40
2019-05-21T05:04:56.037Z,374.97
2019-05-21T05:07:28.305Z,354.17
2019-05-21T05:09:54.388Z,395.47
2019-05-21T05:12:22.670Z,335.20
2019-05-21T05:14:50.991Z,295.77
2019-05-21T05:17:19.293Z,320.30
2019-05-21T05:19:47.608Z,352.13
2019-05-21T05:22:15.906Z,343.33
2019-05-21T05:24:44.221Z,333.97
2019-05-21T05:27:12.522Z,319.83
2019-05-21T05:29:40.846Z,325.90
2019-05-21T05:32:09.142Z,337.30
2019-05-21T05:34:37.451Z,306.00
2019-05-21T05:37:05.851Z,339.17
2019-05-21T05:39:34.158Z,329.70
2019-05-21T05:42:02.456Z,327.57
2019-05-21T05:44:30.769Z,349.83
2019-05-21T05:46:59.075Z,322.97
2019-05-21T05:49:31.547Z,347.70
2019-05-21T05:51:59.848Z,259.93
2019-05-21T05:54:28.139Z,389.47
2019-05-21T05:56:56.928Z,339.57
2019-05-21T05:59:25.225Z,309.73
2019-05-21T06:01:53.536Z,341.90
2019-05-21T06:04:21.831Z,377.50
2019-05-21T06:06:50.146Z,367.97
2019-05-21T06:09:18.441Z,356.70
2019-05-21T06:11:46.756Z,339.53
2019-05-21T06:14:15.054Z,334.03
2019-05-21T06:16:43.356Z,343.13
2019-05-21T06:19:11.663Z,379.83
2019-05-21T06:21:39.978Z,338.23
2019-05-21T06:24:08.281Z,346.03
2019-05-21T06:26:36.583Z,555.33
2019-05-21T06:29:05.126Z,447.33
2019-05-21T06:31:33.429Z,411.40
2019-05-21T06:34:01.740Z,386.87
2019-05-21T06:36:30.046Z,402.07
2019-05-21T06:38:58.374Z,362.90
2019-05-21T06:41:26.669Z,404.73
2019-05-21T06:43:54.990Z,452.93
2019-05-21T06:46:23.296Z,468.00
2019-05-21T06:48:51.609Z,532.10
2019-05-21T06:51:19.912Z,552.07
2019-05-21T06:53:48.211Z,580.13
2019-05-21T06:56:16.514Z,597.10
2019-05-21T06:58:44.889Z,605.87
2019-05-21T07:01:13.188Z,708.13
2019-05-21T07:03:41.496Z,619.47
2019-05-21T07:06:09.850Z,839.30
2019-05-21T07:08:38.191Z,640.73
2019-05-21T07:11:06.491Z,670.33
2019-05-21T07:13:34.817Z,764.10
2019-05-21T07:16:03.425Z,661.37
2019-05-21T07:18:31.732Z,652.23
2019-05-21T07:21:00.100Z,654.83
2019-05-21T07:23:28.413Z,560.93
2019-05-21T07:25:56.709Z,533.73
2019-05-21T07:28:25.028Z,479.47
2019-05-21T07:30:53.570Z,481.07
2019-05-21T07:33:21.875Z,464.97
2019-05-21T07:35:50.194Z,517.57
2019-05-21T07:38:18.488Z,470.67
2019-05-21T07:40:46.821Z,455.20
2019-05-21T07:43:15.113Z,427.63
2019-05-21T07:45:43.426Z,448.70
2019-05-21T07:48:11.722Z,507.87
2019-05-21T07:50:40.042Z,393.77
2019-05-21T07:53:08.349Z,461.57
2019-05-21T07:55:36.656Z,439.10
2019-05-21T07:58:05.257Z,447.87
2019-05-21T08:00:33.808Z,443.40
2019-05-21T08:03:02.114Z,447.73
2019-05-21T08:05:30.419Z,493.43
2019-05-21T08:07:58.728Z,594.03
2019-05-21T08:10:27.055Z,660.63
2019-05-21T08:12:55.358Z,573.20
2019-05-21T08:15:23.643Z,513.53
2019-05-21T08:17:51.981Z,556.37
2019-05-21T08:20:20.596Z,557.43
2019-05-21T08:22:48.909Z,557.63
2019-05-21T08:25:17.213Z,562.10
2019-05-21T08:27:45.597Z,597.53
2019-05-21T08:30:13.958Z,534.60
2019-05-21T08:32:42.286Z,532.47
2019-05-21T08:35:10.759Z,546.70
2019-05-21T08:37:39.088Z,548.20
2019-05-21T08:40:07.922Z,508.23
2019-05-21T08:42:36.234Z,540.63
2019-05-21T08:45:06.843Z,534.83
2019-05-21T08:47:35.114Z,534.87
2019-05-21T08:50:05.520Z,497.97
2019-05-21T08:52:33.825Z,510.83
2019-05-21T08:55:02.129Z,480.73
2019-05-21T08:57:30.426Z,454.63
2019-05-21T08:59:58.756Z,493.57
2019-05-21T09:02:27.061Z,475.03
2019-05-21T09:04:55.705Z,473.17
2019-05-21T09:07:24.005Z,487.37
2019-05-21T09:09:52.413Z,467.63
2019-05-21T09:12:20.755Z,473.43
2019-05-21T09:14:49.070Z,439.47
2019-05-21T09:17:17.423Z,446.73
2019-05-21T09:19:45.678Z,426.97
2019-05-21T09:22:13.971Z,450.50
2019-05-21T09:24:42.279Z,460.13
2019-05-21T09:27:29.912Z,455.73
2019-05-21T09:29:58.231Z,505.63
2019-05-21T09:32:26.530Z,553.63
2019-05-21T09:34:54.838Z,509.03
2019-05-21T09:37:23.133Z,441.97
2019-05-21T09:39:51.442Z,446.83
2019-05-21T09:42:19.731Z,467.83
2019-05-21T09:44:48.025Z,511.00
2019-05-21T09:47:16.332Z,472.93
2019-05-21T09:49:44.635Z,449.60
2019-05-21T09:52:12.937Z,458.20
2019-05-21T09:54:41.238Z,421.73
2019-05-21T09:57:11.181Z,395.13
2019-05-21T09:59:47.081Z,394.30
2019-05-21T10:02:17.108Z,382.50
2019-05-21T10:04:45.402Z,389.50
2019-05-21T10:07:13.780Z,409.77
2019-05-21T10:09:42.082Z,544.63
2019-05-21T10:12:10.713Z,415.00
2019-05-21T10:14:39.018Z,370.03
2019-05-21T10:17:07.317Z,392.10
2019-05-21T10:19:35.624Z,479.33
2019-05-21T10:22:04.174Z,468.90
2019-05-21T10:24:32.553Z,479.33
2019-05-21T10:27:03.420Z,487.13
2019-05-21T10:29:30.877Z,435.07
2019-05-21T10:31:59.169Z,420.90
2019-05-21T10:34:27.481Z,381.97
2019-05-21T10:36:55.783Z,390.23
2019-05-21T10:39:24.140Z,390.57
2019-05-21T10:41:52.383Z,456.00
2019-05-21T10:44:20.764Z,452.83
2019-05-21T10:46:49.059Z,441.47
2019-05-21T10:49:17.357Z,449.37
2019-05-21T10:51:45.736Z,574.60
2019-05-21T10:54:14.033Z,601.90
2019-05-21T10:56:47.786Z,475.97
2019-05-21T10:59:12.436Z,406.53
2019-05-21T11:01:54.400Z,416.47
2019-05-21T11:04:26.862Z,442.40
2019-05-21T11:06:55.405Z,403.00
2019-05-21T11:09:24.776Z,494.20
2019-05-21T11:11:53.333Z,481.13
2019-05-21T11:14:21.636Z,479.33
2019-05-21T11:16:49.940Z,443.63
2019-05-21T11:19:18.555Z,380.90
2019-05-21T11:21:46.872Z,374.70
2019-05-21T11:24:15.239Z,378.53
2019-05-21T11:26:43.526Z,350.83
2019-05-21T11:29:11.829Z,336.47
2019-05-21T11:31:55.762Z,381.57
2019-05-21T11:34:10.237Z,354.53
2019-05-21T11:36:38.518Z,355.83
2019-05-21T11:39:08.176Z,323.07
2019-05-21T11:41:36.633Z,307.10
2019-05-21T11:44:05.113Z,340.60
2019-05-21T11:46:33.404Z,344.33
2019-05-21T11:49:01.701Z,296.80
2019-05-21T11:51:30.012Z,295.80
2019-05-21T11:53:58.303Z,249.17
2019-05-21T11:56:26.639Z,294.27
2019-05-21T11:58:54.924Z,235.93
2019-05-21T12:01:23.237Z,288.73
2019-05-21T12:03:51.531Z,287.73
2019-05-21T12:06:19.909Z,271.27
2019-05-21T12:08:56.855Z,298.83
2019-05-21T12:11:18.303Z,263.70
2019-05-21T12:13:46.605Z,271.80
2019-05-21T12:16:14.909Z,316.63
2019-05-21T12:18:43.204Z,289.60
2019-05-21T12:21:11.511Z,270.53
2019-05-21T12:23:39.887Z,268.80
2019-05-21T12:26:08.182Z,301.73
2019-05-21T12:28:36.482Z,320.30
2019-05-21T12:31:05.199Z,299.97
2019-05-21T12:33:35.145Z,285.27
2019-05-21T12:36:04.114Z,273.87
2019-05-21T12:38:32.433Z,279.17
2019-05-21T12:41:00.734Z,277.77
2019-05-21T12:43:29.052Z,305.30
2019-05-21T12:45:57.346Z,253.57
2019-05-21T12:48:25.660Z,268.13
2019-05-21T12:50:53.957Z,257.20
2019-05-21T12:53:22.267Z,272.07
2019-05-21T12:55:50.562Z,272.07
2019-05-21T12:58:18.864Z,281.73
2019-05-21T13:00:47.169Z,263.40
2019-05-21T13:03:15.466Z,266.43
2019-05-21T13:05:43.788Z,251.27
2019-05-21T13:08:12.094Z,252.73
2019-05-21T13:10:40.404Z,275.37
2019-05-21T13:13:08.758Z,261.70
2019-05-21T13:15:37.083Z,276.80
2019-05-21T13:18:05.442Z,226.60
2019-05-21T13:20:33.756Z,245.77
2019-05-21T13:23:02.173Z,263.33
2019-05-21T13:25:30.738Z,258.00
2019-05-21T13:27:59.054Z,271.00
2019-05-21T13:30:27.400Z,314.17
2019-05-21T13:32:55.737Z,295.80
2019-05-21T13:35:24.153Z,263.27
2019-05-21T13:37:52.489Z,238.00
2019-05-21T13:40:21.134Z,282.20
2019-05-21T13:42:49.436Z,276.97
2019-05-21T13:45:17.803Z,254.13
2019-05-21T13:47:46.113Z,258.10
2019-05-21T13:50:14.797Z,254.77
2019-05-21T13:52:43.108Z,281.97
2019-05-21T13:55:11.589Z,283.00
2019-05-21T13:57:39.905Z,284.53
2019-05-21T14:00:10.745Z,283.37
2019-05-21T14:02:39.109Z,301.03
2019-05-21T14:05:08.115Z,320.33
2019-05-21T14:07:36.492Z,337.90
2019-05-21T14:10:18.456Z,332.03
2019-05-21T14:12:36.574Z,312.67
2019-05-21T14:15:05.953Z,318.90
2019-05-21T14:17:34.282Z,302.90
2019-05-21T14:20:02.640Z,294.37
2019-05-21T14:22:30.961Z,316.67
2019-05-21T14:24:59.253Z,298.17
2019-05-21T14:27:43.242Z,315.03
2019-05-21T14:29:57.596Z,331.60
2019-05-21T14:32:25.888Z,356.87
2019-05-21T14:35:01.184Z,326.60
2019-05-21T14:37:24.285Z,362.00
2019-05-21T14:39:52.665Z,371.97
2019-05-21T14:42:21.010Z,377.17
2019-05-21T14:44:49.357Z,386.70
2019-05-21T14:47:17.657Z,330.30
2019-05-21T14:49:45.961Z,352.30
2019-05-21T14:52:14.251Z,381.53
2019-05-21T14:54:42.570Z,352.53
2019-05-21T14:57:13.564Z,376.20
2019-05-21T14:59:42.043Z,336.80
2019-05-21T15:02:10.408Z,344.83
2019-05-21T15:04:39.012Z,320.57
2019-05-21T15:07:07.486Z,333.40
2019-05-21T15:09:35.788Z,351.30
2019-05-21T15:12:04.161Z,327.07
2019-05-21T15:14:32.461Z,350.53
2019-05-21T15:17:00.789Z,377.83
2019-05-21T15:19:29.140Z,358.17
2019-05-21T15:21:57.836Z,350.90
2019-05-21T15:24:26.135Z,343.53
2019-05-21T15:26:54.513Z,367.37
2019-05-21T15:29:22.805Z,371.40
2019-05-21T15:31:51.108Z,387.27
2019-05-21T15:34:19.434Z,346.97
2019-05-21T15:36:47.734Z,341.60
2019-05-21T15:39:16.278Z,427.13
2019-05-21T15:41:44.605Z,369.70
2019-05-21T15:44:12.874Z,382.80
2019-05-21T15:46:49.275Z,431.53
2019-05-21T15:49:11.214Z,396.93
2019-05-21T15:51:39.505Z,355.53
2019-05-21T15:54:07.828Z,386.97
2019-05-21T15:56:36.123Z,364.03
2019-05-21T15:59:05.199Z,372.17
2019-05-21T16:01:33.575Z,376.77
2019-05-21T16:04:01.879Z,349.27
2019-05-21T16:06:30.173Z,353.43
2019-05-21T16:08:58.503Z,385.13
2019-05-21T16:11:29.002Z,342.93
2019-05-21T16:13:56.899Z,352.93
2019-05-21T16:16:25.269Z,387.20
2019-05-21T16:18:53.573Z,378.33
2019-05-21T16:21:21.930Z,374.60
2019-05-21T16:23:50.252Z,363.13
2019-05-21T16:26:18.540Z,357.57
2019-05-21T16:28:46.835Z,340.33
2019-05-21T16:31:15.146Z,321.33
2019-05-21T16:33:43.459Z,350.63
2019-05-21T16:36:11.792Z,363.17
2019-05-21T16:38:40.095Z,361.93
2019-05-21T16:41:08.436Z,394.97
2019-05-21T16:43:37.547Z,392.47
2019-05-21T16:46:05.927Z,399.33
2019-05-21T16:48:34.286Z,395.67
2019-05-21T16:51:02.709Z,361.77
2019-05-21T16:53:31.258Z,364.90
2019-05-21T16:55:59.576Z,358.13
2019-05-21T16:58:27.941Z,396.17
2019-05-21T17:00:56.252Z,397.93
2019-05-21T17:03:24.549Z,422.03
2019-05-21T17:05:52.877Z,419.17
2019-05-21T17:08:21.174Z,414.73
2019-05-21T17:10:49.484Z,382.33
2019-05-21T17:13:17.795Z,389.60
2019-05-21T17:15:46.136Z,401.17
2019-05-21T17:18:14.436Z,345.87
2019-05-21T17:20:42.745Z,310.50
2019-05-21T17:23:11.050Z,350.40
2019-05-21T17:25:39.393Z,346.93
2019-05-21T17:28:07.680Z,333.37
2019-05-21T17:30:36.018Z,315.30
2019-05-21T17:33:04.308Z,350.47
2019-05-21T17:35:32.609Z,329.73
2019-05-21T17:38:00.923Z,353.10
2019-05-21T17:40:29.355Z,358.80
2019-05-21T17:42:57.676Z,363.43
2019-05-21T17:45:25.968Z,375.43
2019-05-21T17:47:54.275Z,370.60
2019-05-21T17:50:22.636Z,353.47
2019-05-21T17:52:51.075Z,331.07
2019-05-21T17:55:19.469Z,364.50
2019-05-21T17:57:48.456Z,356.17
2019-05-21T18:00:18.827Z,308.40
2019-05-21T18:02:47.578Z,343.37
2019-05-21T18:05:16.448Z,341.20
2019-05-21T18:07:45.326Z,331.27
2019-05-21T18:10:14.922Z,307.63
2019-05-21T18:12:43.317Z,334.60
2019-05-21T18:15:12.804Z,351.63
2019-05-21T18:17:42.671Z,373.13
2019-05-21T18:20:12.569Z,389.37
2019-05-21T18:22:42.692Z,374.73
2019-05-21T18:25:11.929Z,355.53
2019-05-21T18:27:40.238Z,307.13
2019-05-21T18:30:09.225Z,340.60
2019-05-21T18:32:37.699Z,329.83
2019-05-21T18:35:08.808Z,314.50
2019-05-21T18:37:38.399Z,301.17
2019-05-21T18:40:08.838Z,354.70
2019-05-21T18:42:37.139Z,320.07
2019-05-21T18:45:06.602Z,363.60
2019-05-21T18:47:35.217Z,361.40
2019-05-21T18:50:05.370Z,403.30
2019-05-21T18:52:33.728Z,353.27
2019-05-21T18:55:02.116Z,365.50
2019-05-21T18:57:30.416Z,317.63
2019-05-21T18:59:58.918Z,349.27
2019-05-21T19:02:27.214Z,302.03
2019-05-21T19:04:55.577Z,297.17
2019-05-21T19:07:23.960Z,281.90
2019-05-21T19:09:52.259Z,298.20
2019-05-21T19:12:20.569Z,266.57
2019-05-21T19:14:48.934Z,270.93
2019-05-21T19:17:17.243Z,293.73
2019-05-21T19:19:45.550Z,302.97
2019-05-21T19:22:13.870Z,320.60
2019-05-21T19:24:42.157Z,309.43
2019-05-21T19:27:10.474Z,302.70
2019-05-21T19:29:38.805Z,313.50
2019-05-21T19:32:07.208Z,315.40
2019-05-21T19:34:35.507Z,313.77
2019-05-21T19:37:03.889Z,308.33
2019-05-21T19:39:32.544Z,299.97
2019-05-21T19:42:00.915Z,308.17
2019-05-21T19:44:29.232Z,294.00
2019-05-21T19:46:57.541Z,292.63
2019-05-21T19:49:25.851Z,334.67
2019-05-21T19:51:54.150Z,311.73
2019-05-21T19:54:22.456Z,311.20
2019-05-21T19:56:50.754Z,313.27
2019-05-21T19:59:19.069Z,301.97
2019-05-21T20:01:48.171Z,305.13
2019-05-21T20:04:17.005Z,301.47
2019-05-21T20:06:45.816Z,303.50
2019-05-21T20:09:15.766Z,328.97
2019-05-21T20:11:44.530Z,322.97
2019-05-21T20:14:12.838Z,310.63
2019-05-21T20:16:41.163Z,293.77
2019-05-21T20:19:10.170Z,272.20
2019-05-21T20:21:38.467Z,261.13
2019-05-21T20:24:07.026Z,259.23
2019-05-21T20:26:36.263Z,253.23
2019-05-21T20:29:04.729Z,306.07
2019-05-21T20:31:33.562Z,273.13
2019-05-21T20:34:02.219Z,281.40
2019-05-21T20:36:31.130Z,252.37
2019-05-21T20:39:00.323Z,265.73
2019-05-21T20:41:29.126Z,240.53
2019-05-21T20:43:59.319Z,237.83
2019-05-21T20:46:28.431Z,244.37
2019-05-21T20:48:56.910Z,236.37
2019-05-21T20:51:25.936Z,254.90
2019-05-21T20:53:54.243Z,258.30
2019-05-21T20:56:22.807Z,269.97
2019-05-21T20:58:51.186Z,266.07
2019-05-21T21:01:19.928Z,249.60
2019-05-21T21:03:48.245Z,266.73
2019-05-21T21:06:16.824Z,250.07
2019-05-21T21:08:45.320Z,255.10
2019-05-21T21:11:14.093Z,279.63
2019-05-21T21:13:42.871Z,278.37
2019-05-21T21:16:11.619Z,292.53
2019-05-21T21:18:40.102Z,275.43
2019-05-21T21:21:08.458Z,317.00
2019-05-21T21:23:37.119Z,306.63
2019-05-21T21:26:05.676Z,434.20
2019-05-21T21:28:34.228Z,404.50
2019-05-21T21:31:03.009Z,220.17
2019-05-21T21:33:31.322Z,275.73
2019-05-21T21:35:59.683Z,263.07
2019-05-21T21:38:28.830Z,283.00
2019-05-21T21:40:57.137Z,280.03
2019-05-21T21:43:25.427Z,418.00
2019-05-21T21:45:53.904Z,411.07
2019-05-21T21:48:22.478Z,357.27
2019-05-21T21:50:50.964Z,313.97
2019-05-21T21:53:19.468Z,267.63
2019-05-21T21:55:47.848Z,257.60
2019-05-21T21:58:16.321Z,317.77
2019-05-21T22:01:16.438Z,299.13
2019-05-21T22:03:45.375Z,276.77
2019-05-21T22:06:15.429Z,270.13
2019-05-21T22:08:43.750Z,295.73
2019-05-21T22:11:12.131Z,312.13
2019-05-21T22:13:40.802Z,394.63
2019-05-21T22:16:09.110Z,315.03
2019-05-21T22:18:37.779Z,303.43
2019-05-21T22:21:06.376Z,282.93
2019-05-21T22:23:35.742Z,226.73
2019-05-21T22:26:04.042Z,211.33
2019-05-21T22:28:32.623Z,239.73
2019-05-21T22:31:01.156Z,222.27
2019-05-21T22:33:29.466Z,190.40
2019-05-21T22:35:57.899Z,196.13
2019-05-21T22:38:26.358Z,173.27
2019-05-21T22:40:54.670Z,172.27
2019-05-21T22:43:23.236Z,91.70
2019-05-21T22:45:51.590Z,83.07
2019-05-21T22:48:19.897Z,77.70
2019-05-21T22:50:48.185Z,79.43
2019-05-21T22:53:16.495Z,83.90
2019-05-21T22:55:44.856Z,90.57
2019-05-21T22:58:13.160Z,90.37
2019-05-21T23:00:41.818Z,65.27
2019-05-21T23:03:10.257Z,74.60
2019-05-21T23:05:38.634Z,65.53
2019-05-21T23:08:08.120Z,67.73
2019-05-21T23:10:37.263Z,61.10
2019-05-21T23:13:05.659Z,60.47
2019-05-21T23:15:33.962Z,65.30
2019-05-21T23:18:02.319Z,63.20
2019-05-21T23:20:31.787Z,72.07
2019-05-21T23:23:00.553Z,64.30
2019-05-21T23:25:30.294Z,57.00
2019-05-21T23:27:59.139Z,62.77
2019-05-21T23:30:27.662Z,70.40
2019-05-21T23:32:56.114Z,69.30
2019-05-21T23:35:25.790Z,84.07
2019-05-21T23:37:55.797Z,141.43
2019-05-21T23:40:24.670Z,70.53
2019-05-21T23:42:53.224Z,55.57
2019-05-21T23:45:21.753Z,74.97
2019-05-21T23:47:50.044Z,73.20
2019-05-21T23:50:20.083Z,69.50
2019-05-21T23:52:49.225Z,89.40
2019-05-21T23:55:17.794Z,147.37
2019-05-21T23:57:46.349Z,64.17
